Flight Track Log - Related Links

Times and Time Zones

All times are in EDT time to prevent confusion due to time zone crossing. See the CSJ405 flight status page for this flight to view local times or setup timezone preferences in your user account.

Time Position Orientation Groundspeed Altitude Reporting Facility
EDT Latitude Longitude Course Direction KTS MPH feet Rate Location/Type
Tue 01:26:39 AM 43.1667 -79.9000 360° North 20 23 900  Level Toronto Center
Tue 01:27:39 AM 43.1667 -79.9000 360° North 40 46 800  Descending Toronto Center
Tue 01:28:39 AM 43.1667 -79.9000 236° Southwest 70 81 900 500 Climbing Toronto Center
Tue 01:29:39 AM 43.1500 -79.9333 236° Southwest 70 81 1,800 800 Climbing Toronto Center
Tue 01:30:39 AM 43.1333 -79.9500 216° Southwest 80 92 2,500 700 Climbing Toronto Center
Tue 01:31:39 AM 43.1500 -79.9833 304° West 90 104 3,200 800 Climbing Toronto Center
Tue 01:32:39 AM 43.1833 -79.9333 48° Northeast 120 138 4,100 850 Climbing Toronto Center
Tue 01:33:39 AM 43.2000 -79.9000 56° Northeast 120 138 4,900 750 Climbing Toronto Center
Tue 01:34:39 AM 43.2167 -79.8667 56° Northeast 130 150 5,600 750 Climbing Toronto Center
Tue 01:35:39 AM 43.2500 -79.8167 48° Northeast 130 150 6,400 800 Climbing Toronto Center
Tue 01:36:39 AM 43.2667 -79.7667 65° Northeast 140 161 7,200 750 Climbing Toronto Center
Tue 01:37:39 AM 43.2833 -79.7500 36° Northeast 140 161 7,900 700 Climbing Toronto Center
Tue 01:38:39 AM 43.3167 -79.7000 47° Northeast 140 161 8,600 550 Climbing Toronto Center
Tue 01:39:39 AM 43.3333 -79.6500 65° Northeast 150 173 9,000 200 Climbing Toronto Center
Tue 01:40:39 AM 43.3667 -79.5833 55° Northeast 180 207 9,000  Level Toronto Center
Tue 01:41:39 AM 43.4000 -79.5333 47° Northeast 190 219 9,000  Level Toronto Center
Tue 01:42:39 AM 43.4333 -79.4667 55° Northeast 190 219 9,000  Level Toronto Center
Tue 01:43:39 AM 43.4667 -79.4333 36° Northeast 190 219 9,000  Level Toronto Center
Tue 01:44:39 AM 43.4833 -79.3500 75° East 190 219 9,000  Level Toronto Center
Tue 01:45:39 AM 43.5167 -79.2833 55° Northeast 190 219 9,000  Level Toronto Center
Tue 01:46:39 AM 43.5500 -79.2500 36° Northeast 180 207 9,000  Level Toronto Center
Tue 01:47:39 AM 43.5667 -79.1667 75° East 180 207 9,000  Level Toronto Center
Tue 01:48:39 AM 43.6000 -79.1000 55° Northeast 180 207 9,000  Level Toronto Center
Tue 01:49:39 AM 43.6333 -79.0500 47° Northeast 180 207 9,000  Level Toronto Center
Tue 01:50:39 AM 43.6500 -78.9833 71° East 180 207 9,000  Level Toronto Center
Tue 01:51:39 AM 43.6833 -78.9333 47° Northeast 180 207 9,000  Level Toronto Center
Tue 01:52:39 AM 43.7000 -78.8667 71° East 180 207 9,000  Level Toronto Center
Tue 01:53:39 AM 43.7333 -78.8333 36° Northeast 180 207 9,000  Level Toronto Center
Tue 01:54:39 AM 43.7667 -78.7500 61° Northeast 180 207 9,000  Level Toronto Center
Tue 01:55:39 AM 43.7833 -78.6833 71° East 180 207 9,000  Level Toronto Center
Tue 01:56:39 AM 43.8167 -78.6333 47° Northeast 180 207 9,000  Level Toronto Center
Tue 01:57:39 AM 43.8333 -78.5667 71° East 180 207 9,000  Level Toronto Center
Tue 01:58:39 AM 43.8667 -78.5167 47° Northeast 180 207 9,000  Level Toronto Center
Tue 01:59:39 AM 43.8667 -78.4500 90° East 180 207 9,000  Level Toronto Center
Tue 02:00:39 AM 43.9000 -78.4000 47° Northeast 180 207 9,000  Level Toronto Center
Tue 02:01:39 AM 43.9333 -78.3333 55° Northeast 180 207 9,000  Level Toronto Center
Tue 02:02:39 AM 43.9500 -78.2667 71° East 180 207 9,000  Level Toronto Center
Tue 02:03:39 AM 43.9833 -78.2167 47° Northeast 180 207 9,000  Level Toronto Center
Tue 02:05:00 AM 44.0138 -78.1480 58° Northeast  Level FlightAware Approximate
Tue 02:06:39 AM 44.0667 -78.0333 58° Northeast 190 219 9,000  Level Toronto Center
Tue 02:07:39 AM 44.0833 -77.9667 71° East 190 219 9,000  Level Toronto Center
Tue 02:08:39 AM 44.1167 -77.9167 47° Northeast 190 219 9,000  Level Toronto Center
Tue 02:09:39 AM 44.1500 -77.8500 55° Northeast 190 219 9,000  Level Toronto Center
Tue 02:10:39 AM 44.1667 -77.7667 74° East 190 219 9,000  Level Toronto Center
Tue 02:11:39 AM 44.2000 -77.7333 36° Northeast 190 219 9,000  Level Toronto Center
Tue 02:12:00 AM 44.1907 -77.7460 58° Northeast  Level FlightAware Approximate
Tue 02:12:39 AM 44.2333 -77.6500 61° Northeast 190 219 9,000  Level Toronto Center
Tue 02:13:39 AM 44.2500 -77.5833 71° East 190 219 9,000  Level Toronto Center
Tue 02:14:39 AM 44.2833 -77.5333 47° Northeast 190 219 9,000  Level Toronto Center
Tue 02:15:39 AM 44.3167 -77.4667 55° Northeast 190 219 9,000  Level Toronto Center
Tue 02:16:39 AM 44.3333 -77.4000 71° East 180 207 9,000  Level Toronto Center
Tue 02:17:39 AM 44.3500 -77.3500 65° Northeast 180 207 9,000  Level Toronto Center
Tue 02:18:39 AM 44.3667 -77.2833 71° East 180 207 9,000  Level Toronto Center
Tue 02:19:39 AM 44.4000 -77.2000 61° Northeast 180 207 9,000  Level Toronto Center
Tue 02:20:39 AM 44.4167 -77.1500 65° Northeast 180 207 9,000  Level Toronto Center
Tue 02:21:39 AM 44.4500 -77.0833 55° Northeast 190 219 9,000  Level Toronto Center
Tue 02:22:39 AM 44.4833 -77.0333 47° Northeast 190 219 9,000  Level Toronto Center
Tue 02:23:39 AM 44.5000 -76.9667 71° East 180 207 9,000  Level Toronto Center
Tue 02:24:39 AM 44.5333 -76.9000 55° Northeast 190 219 9,000 -100 Level Toronto Center
Tue 02:25:39 AM 44.5667 -76.8500 47° Northeast 190 219 8,800 -550 Descending Toronto Center
Tue 02:26:39 AM 44.5833 -76.7833 71° East 200 230 7,900 -750 Descending Toronto Center
Tue 02:27:39 AM 44.6167 -76.7000 61° Northeast 210 242 7,300 -450 Descending Toronto Center
Tue 02:28:39 AM 44.6333 -76.6333 71° East 190 219 7,000 -550 Descending Toronto Center
Tue 02:29:39 AM 44.6500 -76.5667 71° East 190 219 6,200 -750 Descending Toronto Center
Tue 02:30:39 AM 44.6833 -76.4833 61° Northeast 200 230 5,500 -600 Descending Toronto Center
Tue 02:31:39 AM 44.7167 -76.4333 47° Northeast 190 219 5,000 -250 Descending Toronto Center
Tue 02:32:39 AM 44.7333 -76.3667 71° East 180 207 5,000 100 Level Toronto Center
Tue 02:33:39 AM 44.7667 -76.3000 55° Northeast 180 207 5,200 100 Climbing Toronto Center
Tue 02:34:39 AM 44.7833 -76.2500 65° Northeast 180 207 5,200  Level Toronto Center
Tue 02:35:39 AM 44.8167 -76.1833 55° Northeast 180 207 5,200  Level Toronto Center
Tue 02:36:39 AM 44.8333 -76.1333 65° Northeast 180 207 5,200  Level Toronto Center
Tue 02:37:39 AM 44.8500 -76.0500 74° East 180 207 5,200  Level Toronto Center
Tue 02:38:39 AM 44.8667 -76.0000 65° Northeast 180 207 5,200  Level Toronto Center
Tue 02:39:39 AM 44.9000 -75.9333 55° Northeast 180 207 5,200  Level Toronto Center
Tue 02:40:39 AM 44.9167 -75.8833 65° Northeast 180 207 5,200  Level Toronto Center
Tue 02:41:39 AM 44.9500 -75.8167 55° Northeast 180 207 5,200  Level Toronto Center
Tue 02:42:39 AM 44.9667 -75.7500 71° East 180 207 5,200  Level Toronto Center
Tue 02:43:39 AM 45.0000 -75.7000 47° Northeast 180 207 5,200  Level Toronto Center
Tue 02:44:39 AM 45.0167 -75.6167 74° East 180 207 5,200  Level Toronto Center
Tue 02:45:39 AM 45.0333 -75.5500 70° East 180 207 5,200  Level Toronto Center
Tue 02:46:39 AM 45.0500 -75.5000 65° Northeast 180 207 5,200  Level Toronto Center
Tue 02:47:39 AM 45.0833 -75.4333 55° Northeast 180 207 5,200  Level Toronto Center
Tue 02:48:39 AM 45.1000 -75.3833 65° Northeast 180 207 5,200  Level Toronto Center
Tue 02:49:39 AM 45.1333 -75.3000 60° Northeast 180 207 5,200  Level Toronto Center
Tue 02:50:39 AM 45.1500 -75.2333 70° East 180 207 5,200  Level Toronto Center
Tue 02:51:39 AM 45.1833 -75.1833 47° Northeast 180 207 5,200  Level Toronto Center
Tue 02:52:39 AM 45.1833 -75.1167 90° East 180 207 5,200  Level Toronto Center
Tue 02:53:39 AM 45.2167 -75.0667 47° Northeast 180 207 5,200 -50 Level Toronto Center
Tue 02:54:39 AM 45.2333 -74.9833 74° East 180 207 5,100 -50 Descending Toronto Center
Tue 02:55:39 AM 45.2667 -74.9333 47° Northeast 180 207 5,100  Level Toronto Center
Tue 02:56:39 AM 45.2833 -74.8667 70° East 170 196 5,100  Level Toronto Center
Tue 02:57:39 AM 45.3167 -74.8167 47° Northeast 170 196 5,100  Level Toronto Center
Tue 02:58:39 AM 45.3333 -74.7500 70° East 170 196 5,100  Level Toronto Center
Tue 02:59:39 AM 45.3500 -74.7000 65° Northeast 170 196 5,100 -100 Level Toronto Center
Tue 03:00:39 AM 45.3667 -74.6167 74° East 170 196 4,900 -400 Descending Toronto Center
Tue 03:01:39 AM 45.4000 -74.5667 46° Northeast 180 207 4,300 -550 Descending Toronto Center
Tue 03:02:39 AM 45.4167 -74.5000 70° East 190 219 3,800 -516 Descending Toronto Center
Tue 03:03:47 AM 45.4500 -74.4333 55° Northeast 190 219 3,200 -328 Descending Montreal Center
Tue 03:04:47 AM 45.4667 -74.3833 65° Northeast 180 207 3,100  Descending Montreal Center
Tue 03:05:47 AM 45.5000 -74.3167 54° Northeast 180 207 3,200 -50 Climbing Montreal Center
Tue 03:06:47 AM 45.5167 -74.2500 70° East 180 207 3,000 -100 Descending Montreal Center
Tue 03:07:47 AM 45.5500 -74.2000 46° Northeast 180 207 3,000 -200 Level Montreal Center
Tue 03:08:47 AM 45.5833 -74.1167 60° Northeast 190 219 2,600 -650 Descending Montreal Center
Tue 03:09:47 AM 45.6167 -74.0833 35° Northeast 190 219 1,700 -950 Descending Montreal Center
Tue 03:10:47 AM 45.6500 -74.0333 46° Northeast 160 184 700 -1,000 Descending Montreal Center

Login

Don't have an account? Register now (free) for customized features, flight alerts, and more!